Westhampton, Virginia
Current Conditions -  °F | °C
As of 6:54 AM on Thursday 23 Oct 2014 (Local Time) from KOFP Reporting Station
Overcast Overcast  
Wind Chill: 44°   Ceiling: 6500
Heat Index: 48°   Visibility: 10mi
Dew Point: 42°   Wind: 8mph
Humidity: 80%   Direction: 290°WNW
Pressure: 29.95"   Gusts: NA
Location:  37.5803°N, 77.5202°W
Report Text: KOFP 231054Z AUTO 29007KT 10SM FEW039 OVC065 09/06 A2995 RMK AO2 SLP141 T00890056
Loading
Personal Weather Stations






























Interactive Weather Map
Tropical Storm Tracking
New forecast layout! Learn more

10-Day Weather Forecast

Advertisements
Track Severe Weather on mobile